sensor_id;sensor_type;location;lat;lon;timestamp;temperature;humidity
68804;SHT31;55787;52.678;13.314;2023-03-14T00:01:08;11.57;86.43
68804;SHT31;55787;52.678;13.314;2023-03-14T00:03:34;11.58;86.79
68804;SHT31;55787;52.678;13.314;2023-03-14T00:06:03;11.62;86.17
68804;SHT31;55787;52.678;13.314;2023-03-14T00:08:30;11.58;85.90
68804;SHT31;55787;52.678;13.314;2023-03-14T00:10:56;11.53;85.99
68804;SHT31;55787;52.678;13.314;2023-03-14T00:13:24;11.43;86.72
68804;SHT31;55787;52.678;13.314;2023-03-14T00:15:51;11.45;86.25
68804;SHT31;55787;52.678;13.314;2023-03-14T00:18:17;11.55;85.42
68804;SHT31;55787;52.678;13.314;2023-03-14T00:20:46;11.51;85.31
68804;SHT31;55787;52.678;13.314;2023-03-14T00:23:12;11.54;85.15
68804;SHT31;55787;52.678;13.314;2023-03-14T00:25:39;11.44;85.13
68804;SHT31;55787;52.678;13.314;2023-03-14T00:28:05;11.44;85.29
68804;SHT31;55787;52.678;13.314;2023-03-14T00:30:32;11.45;84.82
68804;SHT31;55787;52.678;13.314;2023-03-14T00:32:58;11.53;84.53
68804;SHT31;55787;52.678;13.314;2023-03-14T00:35:25;11.40;84.70
68804;SHT31;55787;52.678;13.314;2023-03-14T00:37:52;11.22;85.47
68804;SHT31;55787;52.678;13.314;2023-03-14T00:40:18;11.12;86.01
68804;SHT31;55787;52.678;13.314;2023-03-14T00:42:45;10.99;86.40
68804;SHT31;55787;52.678;13.314;2023-03-14T00:45:11;10.89;86.73
68804;SHT31;55787;52.678;13.314;2023-03-14T00:47:38;10.80;87.16
68804;SHT31;55787;52.678;13.314;2023-03-14T00:50:05;10.82;87.06
68804;SHT31;55787;52.678;13.314;2023-03-14T00:52:31;10.69;87.41
68804;SHT31;55787;52.678;13.314;2023-03-14T00:54:58;10.80;87.08
68804;SHT31;55787;52.678;13.314;2023-03-14T00:57:25;10.79;87.46
68804;SHT31;55787;52.678;13.314;2023-03-14T00:59:51;10.86;87.03
68804;SHT31;55787;52.678;13.314;2023-03-14T01:02:19;10.80;86.80
68804;SHT31;55787;52.678;13.314;2023-03-14T01:04:49;10.96;86.31
68804;SHT31;55787;52.678;13.314;2023-03-14T01:07:16;10.88;86.46
68804;SHT31;55787;52.678;13.314;2023-03-14T01:09:43;10.80;86.84
68804;SHT31;55787;52.678;13.314;2023-03-14T01:12:10;10.77;86.79
68804;SHT31;55787;52.678;13.314;2023-03-14T01:14:37;10.82;86.70
68804;SHT31;55787;52.678;13.314;2023-03-14T01:17:04;10.69;87.19
68804;SHT31;55787;52.678;13.314;2023-03-14T01:19:32;10.82;86.52
68804;SHT31;55787;52.678;13.314;2023-03-14T01:21:59;10.82;86.81
68804;SHT31;55787;52.678;13.314;2023-03-14T01:24:25;10.79;86.94
68804;SHT31;55787;52.678;13.314;2023-03-14T01:26:52;10.75;87.05
68804;SHT31;55787;52.678;13.314;2023-03-14T01:29:19;10.80;87.24
68804;SHT31;55787;52.678;13.314;2023-03-14T01:31:45;10.93;86.40
68804;SHT31;55787;52.678;13.314;2023-03-14T01:34:12;10.88;86.61
68804;SHT31;55787;52.678;13.314;2023-03-14T01:36:39;10.93;86.34
68804;SHT31;55787;52.678;13.314;2023-03-14T01:39:06;11.04;86.07
68804;SHT31;55787;52.678;13.314;2023-03-14T01:41:32;11.16;85.43
68804;SHT31;55787;52.678;13.314;2023-03-14T01:43:59;11.13;85.40
68804;SHT31;55787;52.678;13.314;2023-03-14T01:46:34;11.04;85.81
68804;SHT31;55787;52.678;13.314;2023-03-14T01:56:46;11.12;85.36
68804;SHT31;55787;52.678;13.314;2023-03-14T01:59:14;11.07;85.71
68804;SHT31;55787;52.678;13.314;2023-03-14T02:01:44;11.02;85.40
68804;SHT31;55787;52.678;13.314;2023-03-14T02:04:13;11.03;85.72
68804;SHT31;55787;52.678;13.314;2023-03-14T02:06:47;11.13;85.34
68804;SHT31;55787;52.678;13.314;2023-03-14T02:09:15;11.19;85.13
68804;SHT31;55787;52.678;13.314;2023-03-14T02:11:42;11.06;85.44
68804;SHT31;55787;52.678;13.314;2023-03-14T02:14:17;11.07;85.57
68804;SHT31;55787;52.678;13.314;2023-03-14T02:16:45;11.06;85.63
68804;SHT31;55787;52.678;13.314;2023-03-14T02:19:13;10.93;86.18
68804;SHT31;55787;52.678;13.314;2023-03-14T02:25:02;10.89;86.05
68804;SHT31;55787;52.678;13.314;2023-03-14T02:27:30;10.86;86.17
68804;SHT31;55787;52.678;13.314;2023-03-14T02:30:03;11.00;85.92
68804;SHT31;55787;52.678;13.314;2023-03-14T02:32:33;10.99;85.81
68804;SHT31;55787;52.678;13.314;2023-03-14T02:35:05;10.93;85.62
68804;SHT31;55787;52.678;13.314;2023-03-14T02:37:43;10.89;85.98
68804;SHT31;55787;52.678;13.314;2023-03-14T02:40:12;10.86;86.08
68804;SHT31;55787;52.678;13.314;2023-03-14T02:42:38;10.80;86.37
68804;SHT31;55787;52.678;13.314;2023-03-14T02:47:37;10.82;86.32
68804;SHT31;55787;52.678;13.314;2023-03-14T02:50:13;10.88;85.92
68804;SHT31;55787;52.678;13.314;2023-03-14T02:52:40;10.86;85.98
68804;SHT31;55787;52.678;13.314;2023-03-14T02:55:07;10.93;85.69
68804;SHT31;55787;52.678;13.314;2023-03-14T02:57:34;10.95;85.58
68804;SHT31;55787;52.678;13.314;2023-03-14T03:00:02;10.93;85.40
68804;SHT31;55787;52.678;13.314;2023-03-14T03:02:31;10.99;85.11
68804;SHT31;55787;52.678;13.314;2023-03-14T03:04:58;10.86;85.44
68804;SHT31;55787;52.678;13.314;2023-03-14T03:07:25;10.76;85.78
68804;SHT31;55787;52.678;13.314;2023-03-14T03:09:51;10.79;85.69
68804;SHT31;55787;52.678;13.314;2023-03-14T03:12:18;10.75;85.74
68804;SHT31;55787;52.678;13.314;2023-03-14T03:14:45;10.85;85.29
68804;SHT31;55787;52.678;13.314;2023-03-14T03:17:11;10.73;85.75
68804;SHT31;55787;52.678;13.314;2023-03-14T03:19:40;10.77;85.39
68804;SHT31;55787;52.678;13.314;2023-03-14T03:22:07;10.82;85.42
68804;SHT31;55787;52.678;13.314;2023-03-14T03:24:33;10.77;85.34
68804;SHT31;55787;52.678;13.314;2023-03-14T03:27:00;10.77;85.57
68804;SHT31;55787;52.678;13.314;2023-03-14T03:29:27;10.72;85.44
68804;SHT31;55787;52.678;13.314;2023-03-14T03:31:53;10.72;85.56
68804;SHT31;55787;52.678;13.314;2023-03-14T03:34:20;10.68;85.74
68804;SHT31;55787;52.678;13.314;2023-03-14T03:36:47;10.71;85.57
68804;SHT31;55787;52.678;13.314;2023-03-14T03:39:13;10.76;85.31
68804;SHT31;55787;52.678;13.314;2023-03-14T03:41:40;10.69;85.49
68804;SHT31;55787;52.678;13.314;2023-03-14T03:44:06;10.69;85.43
68804;SHT31;55787;52.678;13.314;2023-03-14T03:46:33;10.79;85.01
68804;SHT31;55787;52.678;13.314;2023-03-14T03:49:00;10.66;85.44
68804;SHT31;55787;52.678;13.314;2023-03-14T03:51:27;10.65;85.35
68804;SHT31;55787;52.678;13.314;2023-03-14T03:53:53;10.68;85.29
68804;SHT31;55787;52.678;13.314;2023-03-14T03:56:20;10.62;85.26
68804;SHT31;55787;52.678;13.314;2023-03-14T03:58:46;10.55;85.39
68804;SHT31;55787;52.678;13.314;2023-03-14T04:01:13;10.56;85.39
68804;SHT31;55787;52.678;13.314;2023-03-14T04:03:40;10.56;85.44
68804;SHT31;55787;52.678;13.314;2023-03-14T04:06:09;10.56;85.26
68804;SHT31;55787;52.678;13.314;2023-03-14T04:08:37;10.61;84.99
68804;SHT31;55787;52.678;13.314;2023-03-14T04:11:04;10.59;84.78
68804;SHT31;55787;52.678;13.314;2023-03-14T04:13:31;10.54;85.03
68804;SHT31;55787;52.678;13.314;2023-03-14T04:15:58;10.44;85.42
68804;SHT31;55787;52.678;13.314;2023-03-14T04:18:25;10.51;85.10
68804;SHT31;55787;52.678;13.314;2023-03-14T04:20:53;10.61;84.64
68804;SHT31;55787;52.678;13.314;2023-03-14T04:23:22;10.59;84.40
68804;SHT31;55787;52.678;13.314;2023-03-14T04:25:51;10.52;84.57
68804;SHT31;55787;52.678;13.314;2023-03-14T04:28:18;10.51;84.58
68804;SHT31;55787;52.678;13.314;2023-03-14T04:30:44;10.54;84.49
68804;SHT31;55787;52.678;13.314;2023-03-14T04:33:11;10.52;84.41
68804;SHT31;55787;52.678;13.314;2023-03-14T04:35:40;10.44;84.45
68804;SHT31;55787;52.678;13.314;2023-03-14T04:38:07;10.40;84.74
68804;SHT31;55787;52.678;13.314;2023-03-14T04:40:37;10.37;84.77
68804;SHT31;55787;52.678;13.314;2023-03-14T04:43:03;10.44;84.27
68804;SHT31;55787;52.678;13.314;2023-03-14T04:45:30;10.49;83.94
68804;SHT31;55787;52.678;13.314;2023-03-14T04:47:57;10.48;84.03
68804;SHT31;55787;52.678;13.314;2023-03-14T04:50:23;10.49;83.87
68804;SHT31;55787;52.678;13.314;2023-03-14T04:52:50;10.44;83.84
68804;SHT31;55787;52.678;13.314;2023-03-14T04:55:17;10.42;83.82
68804;SHT31;55787;52.678;13.314;2023-03-14T04:57:43;10.35;84.16
68804;SHT31;55787;52.678;13.314;2023-03-14T05:00:10;10.28;84.41
68804;SHT31;55787;52.678;13.314;2023-03-14T05:02:37;10.31;84.04
68804;SHT31;55787;52.678;13.314;2023-03-14T05:05:04;10.45;83.60
68804;SHT31;55787;52.678;13.314;2023-03-14T05:07:31;10.45;83.51
68804;SHT31;55787;52.678;13.314;2023-03-14T05:09:57;10.52;83.05
68804;SHT31;55787;52.678;13.314;2023-03-14T05:12:24;10.48;83.16
68804;SHT31;55787;52.678;13.314;2023-03-14T05:14:51;10.48;83.21
68804;SHT31;55787;52.678;13.314;2023-03-14T05:17:18;10.51;83.05
68804;SHT31;55787;52.678;13.314;2023-03-14T05:19:45;10.52;82.85
68804;SHT31;55787;52.678;13.314;2023-03-14T05:22:12;10.48;83.25
68804;SHT31;55787;52.678;13.314;2023-03-14T05:24:38;10.51;82.87
68804;SHT31;55787;52.678;13.314;2023-03-14T05:27:05;10.52;82.96
68804;SHT31;55787;52.678;13.314;2023-03-14T05:29:32;10.58;82.46
68804;SHT31;55787;52.678;13.314;2023-03-14T05:31:58;10.58;82.50
68804;SHT31;55787;52.678;13.314;2023-03-14T05:34:25;10.62;82.09
68804;SHT31;55787;52.678;13.314;2023-03-14T05:36:52;10.61;82.26
68804;SHT31;55787;52.678;13.314;2023-03-14T05:39:18;10.56;82.40
68804;SHT31;55787;52.678;13.314;2023-03-14T05:41:45;10.56;82.46
68804;SHT31;55787;52.678;13.314;2023-03-14T05:44:12;10.54;82.30
68804;SHT31;55787;52.678;13.314;2023-03-14T05:46:38;10.61;82.01
68804;SHT31;55787;52.678;13.314;2023-03-14T05:49:05;10.52;82.50
68804;SHT31;55787;52.678;13.314;2023-03-14T05:51:32;10.59;81.93
68804;SHT31;55787;52.678;13.314;2023-03-14T05:53:58;10.61;81.65
68804;SHT31;55787;52.678;13.314;2023-03-14T05:56:25;10.56;81.95
68804;SHT31;55787;52.678;13.314;2023-03-14T05:58:51;10.58;81.84
68804;SHT31;55787;52.678;13.314;2023-03-14T06:01:18;10.61;81.52
68804;SHT31;55787;52.678;13.314;2023-03-14T06:03:45;10.63;81.31
68804;SHT31;55787;52.678;13.314;2023-03-14T06:06:11;10.68;80.96
68804;SHT31;55787;52.678;13.314;2023-03-14T06:08:38;10.71;80.59
68804;SHT31;55787;52.678;13.314;2023-03-14T06:11:05;10.68;80.89
68804;SHT31;55787;52.678;13.314;2023-03-14T06:13:32;10.72;80.52
68804;SHT31;55787;52.678;13.314;2023-03-14T06:15:58;10.68;80.86
68804;SHT31;55787;52.678;13.314;2023-03-14T06:18:25;10.66;80.67
68804;SHT31;55787;52.678;13.314;2023-03-14T06:20:55;10.77;80.05
68804;SHT31;55787;52.678;13.314;2023-03-14T06:23:22;10.85;79.65
68804;SHT31;55787;52.678;13.314;2023-03-14T06:25:49;10.80;80.10
68804;SHT31;55787;52.678;13.314;2023-03-14T06:28:15;10.92;79.29
68804;SHT31;55787;52.678;13.314;2023-03-14T06:30:42;11.04;78.72
68804;SHT31;55787;52.678;13.314;2023-03-14T06:33:08;11.06;78.34
68804;SHT31;55787;52.678;13.314;2023-03-14T06:35:35;11.13;78.06
68804;SHT31;55787;52.678;13.314;2023-03-14T06:38:02;11.22;77.69
68804;SHT31;55787;52.678;13.314;2023-03-14T06:40:30;11.22;77.53
68804;SHT31;55787;52.678;13.314;2023-03-14T06:42:56;11.26;77.57
68804;SHT31;55787;52.678;13.314;2023-03-14T06:45:23;11.22;78.09
68804;SHT31;55787;52.678;13.314;2023-03-14T06:47:50;11.30;78.14
68804;SHT31;55787;52.678;13.314;2023-03-14T06:50:16;11.37;76.95
68804;SHT31;55787;52.678;13.314;2023-03-14T06:52:43;11.41;76.92
68804;SHT31;55787;52.678;13.314;2023-03-14T06:55:15;11.40;76.78
68804;SHT31;55787;52.678;13.314;2023-03-14T06:57:42;11.45;76.47
68804;SHT31;55787;52.678;13.314;2023-03-14T07:00:11;11.54;76.74
68804;SHT31;55787;52.678;13.314;2023-03-14T07:02:39;11.70;76.09
68804;SHT31;55787;52.678;13.314;2023-03-14T07:05:09;11.89;75.75
68804;SHT31;55787;52.678;13.314;2023-03-14T07:07:37;12.09;74.22
68804;SHT31;55787;52.678;13.314;2023-03-14T07:10:04;12.25;73.83
68804;SHT31;55787;52.678;13.314;2023-03-14T07:12:31;12.33;73.69
68804;SHT31;55787;52.678;13.314;2023-03-14T07:14:57;12.11;74.15
68804;SHT31;55787;52.678;13.314;2023-03-14T07:17:42;11.91;74.53
68804;SHT31;55787;52.678;13.314;2023-03-14T07:20:09;11.88;74.60
68804;SHT31;55787;52.678;13.314;2023-03-14T07:22:36;11.89;74.85
68804;SHT31;55787;52.678;13.314;2023-03-14T07:25:03;12.21;74.44
68804;SHT31;55787;52.678;13.314;2023-03-14T07:27:30;12.74;72.19
68804;SHT31;55787;52.678;13.314;2023-03-14T07:29:56;12.93;71.81
68804;SHT31;55787;52.678;13.314;2023-03-14T07:32:23;13.59;69.81
68804;SHT31;55787;52.678;13.314;2023-03-14T07:34:50;13.72;68.09
68804;SHT31;55787;52.678;13.314;2023-03-14T07:37:16;13.72;67.61
68804;SHT31;55787;52.678;13.314;2023-03-14T07:39:43;13.67;68.08
68804;SHT31;55787;52.678;13.314;2023-03-14T07:42:09;13.26;69.82
68804;SHT31;55787;52.678;13.314;2023-03-14T07:44:37;13.65;68.89
68804;SHT31;55787;52.678;13.314;2023-03-14T07:47:03;13.32;69.33
68804;SHT31;55787;52.678;13.314;2023-03-14T07:49:30;13.83;68.88
68804;SHT31;55787;52.678;13.314;2023-03-14T07:51:57;14.03;67.80
68804;SHT31;55787;52.678;13.314;2023-03-14T07:54:24;14.20;67.38
68804;SHT31;55787;52.678;13.314;2023-03-14T07:56:51;13.80;68.01
68804;SHT31;55787;52.678;13.314;2023-03-14T07:59:18;13.61;68.54
68804;SHT31;55787;52.678;13.314;2023-03-14T08:01:45;13.77;69.02
68804;SHT31;55787;52.678;13.314;2023-03-14T08:04:12;14.27;66.69
68804;SHT31;55787;52.678;13.314;2023-03-14T08:06:39;15.22;64.86
68804;SHT31;55787;52.678;13.314;2023-03-14T08:09:05;15.51;63.91
68804;SHT31;55787;52.678;13.314;2023-03-14T08:11:32;15.40;63.17
68804;SHT31;55787;52.678;13.314;2023-03-14T08:13:58;14.95;64.29
68804;SHT31;55787;52.678;13.314;2023-03-14T08:16:25;15.07;64.81
68804;SHT31;55787;52.678;13.314;2023-03-14T08:18:52;14.30;66.40
68804;SHT31;55787;52.678;13.314;2023-03-14T08:21:19;14.11;67.18
68804;SHT31;55787;52.678;13.314;2023-03-14T08:23:45;13.61;67.59
68804;SHT31;55787;52.678;13.314;2023-03-14T08:26:12;13.58;68.88
68804;SHT31;55787;52.678;13.314;2023-03-14T08:28:39;13.63;68.30
68804;SHT31;55787;52.678;13.314;2023-03-14T08:31:06;14.06;67.19
68804;SHT31;55787;52.678;13.314;2023-03-14T08:33:33;14.07;67.63
68804;SHT31;55787;52.678;13.314;2023-03-14T08:36:00;13.93;67.32
68804;SHT31;55787;52.678;13.314;2023-03-14T08:38:27;13.56;68.50
68804;SHT31;55787;52.678;13.314;2023-03-14T08:40:58;13.77;69.22
68804;SHT31;55787;52.678;13.314;2023-03-14T08:43:27;13.32;69.68
68804;SHT31;55787;52.678;13.314;2023-03-14T08:45:57;13.45;70.39
68804;SHT31;55787;52.678;13.314;2023-03-14T08:48:24;13.73;69.79
68804;SHT31;55787;52.678;13.314;2023-03-14T08:50:51;13.80;69.65
68804;SHT31;55787;52.678;13.314;2023-03-14T08:53:18;13.77;69.56
68804;SHT31;55787;52.678;13.314;2023-03-14T08:55:45;15.55;63.84
68804;SHT31;55787;52.678;13.314;2023-03-14T08:58:12;16.22;62.54
68804;SHT31;55787;52.678;13.314;2023-03-14T09:00:39;14.92;65.87
68804;SHT31;55787;52.678;13.314;2023-03-14T09:03:05;14.34;66.66
68804;SHT31;55787;52.678;13.314;2023-03-14T09:05:33;14.28;67.65
68804;SHT31;55787;52.678;13.314;2023-03-14T09:08:00;13.87;68.35
68804;SHT31;55787;52.678;13.314;2023-03-14T09:10:27;13.80;68.14
68804;SHT31;55787;52.678;13.314;2023-03-14T09:12:54;14.44;67.67
68804;SHT31;55787;52.678;13.314;2023-03-14T09:15:20;14.06;68.35
68804;SHT31;55787;52.678;13.314;2023-03-14T09:17:47;15.84;63.47
68804;SHT31;55787;52.678;13.314;2023-03-14T09:20:13;17.63;58.38
68804;SHT31;55787;52.678;13.314;2023-03-14T09:22:40;19.73;51.79
68804;SHT31;55787;52.678;13.314;2023-03-14T09:25:08;20.19;50.37
68804;SHT31;55787;52.678;13.314;2023-03-14T09:27:34;18.64;52.06
68804;SHT31;55787;52.678;13.314;2023-03-14T09:30:02;20.04;49.70
68804;SHT31;55787;52.678;13.314;2023-03-14T09:32:30;20.56;48.63
68804;SHT31;55787;52.678;13.314;2023-03-14T09:34:58;18.30;52.20
68804;SHT31;55787;52.678;13.314;2023-03-14T09:37:24;16.73;56.97
68804;SHT31;55787;52.678;13.314;2023-03-14T09:39:51;16.28;58.86
68804;SHT31;55787;52.678;13.314;2023-03-14T09:42:21;16.30;56.56
68804;SHT31;55787;52.678;13.314;2023-03-14T09:47:19;15.60;58.30
68804;SHT31;55787;52.678;13.314;2023-03-14T09:49:46;14.95;60.83
68804;SHT31;55787;52.678;13.314;2023-03-14T09:52:20;14.95;60.67
68804;SHT31;55787;52.678;13.314;2023-03-14T09:54:53;14.92;61.15
68804;SHT31;55787;52.678;13.314;2023-03-14T09:57:23;15.02;60.92
68804;SHT31;55787;52.678;13.314;2023-03-14T09:59:54;14.82;61.76
68804;SHT31;55787;52.678;13.314;2023-03-14T10:02:25;14.68;62.19
68804;SHT31;55787;52.678;13.314;2023-03-14T10:04:53;14.40;62.38
68804;SHT31;55787;52.678;13.314;2023-03-14T10:07:31;14.46;62.74
68804;SHT31;55787;52.678;13.314;2023-03-14T10:09:59;14.54;62.79
68804;SHT31;55787;52.678;13.314;2023-03-14T10:12:34;14.55;63.16
68804;SHT31;55787;52.678;13.314;2023-03-14T10:15:13;14.69;61.74
68804;SHT31;55787;52.678;13.314;2023-03-14T10:17:47;14.55;62.17
68804;SHT31;55787;52.678;13.314;2023-03-14T10:20:28;14.27;62.98
68804;SHT31;55787;52.678;13.314;2023-03-14T10:25:41;13.99;63.92
68804;SHT31;55787;52.678;13.314;2023-03-14T10:28:24;13.82;64.65
68804;SHT31;55787;52.678;13.314;2023-03-14T10:30:51;13.86;64.34
68804;SHT31;55787;52.678;13.314;2023-03-14T10:33:30;13.83;64.20
68804;SHT31;55787;52.678;13.314;2023-03-14T10:35:59;13.79;64.26
68804;SHT31;55787;52.678;13.314;2023-03-14T10:38:32;13.82;63.98
68804;SHT31;55787;52.678;13.314;2023-03-14T10:40:59;13.63;64.08
68804;SHT31;55787;52.678;13.314;2023-03-14T10:43:31;13.79;64.65
68804;SHT31;55787;52.678;13.314;2023-03-14T10:46:08;13.69;64.95
68804;SHT31;55787;52.678;13.314;2023-03-14T10:48:37;13.82;64.23
68804;SHT31;55787;52.678;13.314;2023-03-14T10:53:48;13.72;63.97
68804;SHT31;55787;52.678;13.314;2023-03-14T10:56:18;13.65;63.89
68804;SHT31;55787;52.678;13.314;2023-03-14T10:58:49;13.63;63.49
68804;SHT31;55787;52.678;13.314;2023-03-14T11:01:53;13.58;64.21
68804;SHT31;55787;52.678;13.314;2023-03-14T11:09:47;13.41;65.09
68804;SHT31;55787;52.678;13.314;2023-03-14T11:12:34;13.42;65.62
68804;SHT31;55787;52.678;13.314;2023-03-14T11:32:02;13.08;67.09
68804;SHT31;55787;52.678;13.314;2023-03-14T11:34:39;13.16;67.72
68804;SHT31;55787;52.678;13.314;2023-03-14T11:40:06;13.22;66.65
68804;SHT31;55787;52.678;13.314;2023-03-14T11:42:37;13.25;67.00
68804;SHT31;55787;52.678;13.314;2023-03-14T11:45:10;13.34;67.36
68804;SHT31;55787;52.678;13.314;2023-03-14T11:47:39;13.02;69.37
68804;SHT31;55787;52.678;13.314;2023-03-14T11:52:50;13.11;69.32
68804;SHT31;55787;52.678;13.314;2023-03-14T11:55:24;13.25;68.46
68804;SHT31;55787;52.678;13.314;2023-03-14T11:58:00;13.14;68.61
68804;SHT31;55787;52.678;13.314;2023-03-14T12:00:28;13.15;69.61
68804;SHT31;55787;52.678;13.314;2023-03-14T12:03:04;13.19;73.06
68804;SHT31;55787;52.678;13.314;2023-03-14T12:09:12;12.79;75.05
68804;SHT31;55787;52.678;13.314;2023-03-14T12:11:13;12.34;77.38
68804;SHT31;55787;52.678;13.314;2023-03-14T12:13:41;12.49;78.09
68804;SHT31;55787;52.678;13.314;2023-03-14T12:18:52;12.53;76.95
68804;SHT31;55787;52.678;13.314;2023-03-14T12:21:20;12.68;77.66
68804;SHT31;55787;52.678;13.314;2023-03-14T12:23:52;12.95;76.03
68804;SHT31;55787;52.678;13.314;2023-03-14T12:29:13;13.63;74.36
68804;SHT31;55787;52.678;13.314;2023-03-14T12:31:43;13.89;71.22
68804;SHT31;55787;52.678;13.314;2023-03-14T12:42:17;15.70;64.49
68804;SHT31;55787;52.678;13.314;2023-03-14T12:44:50;15.22;65.76
68804;SHT31;55787;52.678;13.314;2023-03-14T12:49:45;17.17;60.34
68804;SHT31;55787;52.678;13.314;2023-03-14T12:52:19;16.50;59.44
68804;SHT31;55787;52.678;13.314;2023-03-14T12:55:02;16.02;61.48
68804;SHT31;55787;52.678;13.314;2023-03-14T12:57:36;16.18;63.47
68804;SHT31;55787;52.678;13.314;2023-03-14T13:00:21;15.75;62.11
68804;SHT31;55787;52.678;13.314;2023-03-14T13:02:48;15.47;62.17
68804;SHT31;55787;52.678;13.314;2023-03-14T13:05:23;16.12;61.46
68804;SHT31;55787;52.678;13.314;2023-03-14T13:10:22;16.39;60.98
68804;SHT31;55787;52.678;13.314;2023-03-14T13:18:13;18.01;57.58
68804;SHT31;55787;52.678;13.314;2023-03-14T13:20:55;17.93;56.94
68804;SHT31;55787;52.678;13.314;2023-03-14T13:23:29;17.87;58.05
68804;SHT31;55787;52.678;13.314;2023-03-14T13:25:57;16.97;57.94
68804;SHT31;55787;52.678;13.314;2023-03-14T13:28:26;18.43;55.91
68804;SHT31;55787;52.678;13.314;2023-03-14T13:30:58;19.02;53.61
68804;SHT31;55787;52.678;13.314;2023-03-14T13:33:26;17.59;55.21
68804;SHT31;55787;52.678;13.314;2023-03-14T13:35:58;18.23;54.93
68804;SHT31;55787;52.678;13.314;2023-03-14T13:38:27;19.51;52.68
68804;SHT31;55787;52.678;13.314;2023-03-14T13:40:56;19.36;50.87
68804;SHT31;55787;52.678;13.314;2023-03-14T13:43:30;19.63;51.52
68804;SHT31;55787;52.678;13.314;2023-03-14T13:46:15;18.99;51.68
68804;SHT31;55787;52.678;13.314;2023-03-14T13:48:55;20.05;51.24
68804;SHT31;55787;52.678;13.314;2023-03-14T13:51:22;20.48;48.57
68804;SHT31;55787;52.678;13.314;2023-03-14T13:53:53;19.84;48.38
68804;SHT31;55787;52.678;13.314;2023-03-14T13:56:21;19.63;50.50
68804;SHT31;55787;52.678;13.314;2023-03-14T13:58:49;18.85;50.69
68804;SHT31;55787;52.678;13.314;2023-03-14T14:01:25;18.57;52.69
68804;SHT31;55787;52.678;13.314;2023-03-14T14:03:55;19.09;51.38
68804;SHT31;55787;52.678;13.314;2023-03-14T14:06:32;20.01;48.91
68804;SHT31;55787;52.678;13.314;2023-03-14T14:09:02;19.43;49.92
68804;SHT31;55787;52.678;13.314;2023-03-14T14:20:00;17.79;53.59
68804;SHT31;55787;52.678;13.314;2023-03-14T14:22:29;16.93;56.58
68804;SHT31;55787;52.678;13.314;2023-03-14T14:24:57;16.71;56.58
68804;SHT31;55787;52.678;13.314;2023-03-14T14:27:36;15.74;58.65
68804;SHT31;55787;52.678;13.314;2023-03-14T14:32:47;15.55;59.35
68804;SHT31;55787;52.678;13.314;2023-03-14T14:35:26;15.65;59.75
68804;SHT31;55787;52.678;13.314;2023-03-14T14:37:57;15.74;60.96
68804;SHT31;55787;52.678;13.314;2023-03-14T14:40:25;15.74;60.38
68804;SHT31;55787;52.678;13.314;2023-03-14T14:42:53;15.16;63.59
68804;SHT31;55787;52.678;13.314;2023-03-14T14:45:22;14.18;68.41
68804;SHT31;55787;52.678;13.314;2023-03-14T14:50:27;13.05;74.39
68804;SHT31;55787;52.678;13.314;2023-03-14T14:52:59;13.00;76.33
68804;SHT31;55787;52.678;13.314;2023-03-14T14:55:38;13.00;76.77
68804;SHT31;55787;52.678;13.314;2023-03-14T14:58:28;12.77;74.99
68804;SHT31;55787;52.678;13.314;2023-03-14T15:01:24;12.85;76.50
68804;SHT31;55787;52.678;13.314;2023-03-14T15:03:53;12.80;76.91
68804;SHT31;55787;52.678;13.314;2023-03-14T15:06:20;12.80;78.34
68804;SHT31;55787;52.678;13.314;2023-03-14T15:08:48;11.95;76.99
68804;SHT31;55787;52.678;13.314;2023-03-14T15:11:24;10.76;81.04
68804;SHT31;55787;52.678;13.314;2023-03-14T15:13:52;9.67;82.15
68804;SHT31;55787;52.678;13.314;2023-03-14T15:16:27;8.89;84.22
68804;SHT31;55787;52.678;13.314;2023-03-14T15:18:56;8.30;85.30
68804;SHT31;55787;52.678;13.314;2023-03-14T15:21:24;7.98;86.88
68804;SHT31;55787;52.678;13.314;2023-03-14T15:23:52;7.64;88.08
68804;SHT31;55787;52.678;13.314;2023-03-14T15:26:21;7.33;86.91
68804;SHT31;55787;52.678;13.314;2023-03-14T15:28:48;7.02;88.32
68804;SHT31;55787;52.678;13.314;2023-03-14T15:31:16;6.72;88.84
68804;SHT31;55787;52.678;13.314;2023-03-14T15:33:44;6.30;88.39
68804;SHT31;55787;52.678;13.314;2023-03-14T15:36:26;5.80;86.67
68804;SHT31;55787;52.678;13.314;2023-03-14T15:38:54;5.01;85.75
68804;SHT31;55787;52.678;13.314;2023-03-14T15:41:22;4.54;87.02
68804;SHT31;55787;52.678;13.314;2023-03-14T15:43:49;4.02;87.21
68804;SHT31;55787;52.678;13.314;2023-03-14T15:46:16;3.94;88.44
68804;SHT31;55787;52.678;13.314;2023-03-14T15:48:47;3.74;88.94
68804;SHT31;55787;52.678;13.314;2023-03-14T15:51:14;3.51;90.00
68804;SHT31;55787;52.678;13.314;2023-03-14T15:53:41;3.43;90.36
68804;SHT31;55787;52.678;13.314;2023-03-14T15:56:15;3.34;90.47
68804;SHT31;55787;52.678;13.314;2023-03-14T15:58:42;3.29;90.64
68804;SHT31;55787;52.678;13.314;2023-03-14T16:01:14;3.23;90.83
68804;SHT31;55787;52.678;13.314;2023-03-14T16:03:45;3.24;90.35
68804;SHT31;55787;52.678;13.314;2023-03-14T16:06:13;3.16;90.80
68804;SHT31;55787;52.678;13.314;2023-03-14T16:08:41;3.06;91.47
68804;SHT31;55787;52.678;13.314;2023-03-14T16:11:09;3.08;90.75
68804;SHT31;55787;52.678;13.314;2023-03-14T16:13:36;2.99;90.62
68804;SHT31;55787;52.678;13.314;2023-03-14T16:16:04;2.77;90.38
68804;SHT31;55787;52.678;13.314;2023-03-14T16:18:33;2.70;89.92
68804;SHT31;55787;52.678;13.314;2023-03-14T16:21:02;2.57;90.66
68804;SHT31;55787;52.678;13.314;2023-03-14T16:23:32;2.41;90.71
68804;SHT31;55787;52.678;13.314;2023-03-14T16:26:03;2.37;91.50
68804;SHT31;55787;52.678;13.314;2023-03-14T16:28:29;2.30;91.19
68804;SHT31;55787;52.678;13.314;2023-03-14T16:31:00;2.23;91.35
68804;SHT31;55787;52.678;13.314;2023-03-14T16:33:28;2.20;91.47
68804;SHT31;55787;52.678;13.314;2023-03-14T16:35:57;2.07;91.25
68804;SHT31;55787;52.678;13.314;2023-03-14T16:38:26;1.99;91.90
68804;SHT31;55787;52.678;13.314;2023-03-14T16:43:26;1.99;92.26
68804;SHT31;55787;52.678;13.314;2023-03-14T16:45:56;1.99;92.26
68804;SHT31;55787;52.678;13.314;2023-03-14T16:48:23;1.93;92.63
68804;SHT31;55787;52.678;13.314;2023-03-14T16:50:50;1.98;92.39
68804;SHT31;55787;52.678;13.314;2023-03-14T16:53:17;2.00;92.27
68804;SHT31;55787;52.678;13.314;2023-03-14T16:55:44;2.02;92.81
68804;SHT31;55787;52.678;13.314;2023-03-14T16:58:11;2.00;92.93
68804;SHT31;55787;52.678;13.314;2023-03-14T17:00:38;1.98;93.14